Time;durP1;ratioP1;P1;durP2;ratioP2;P2;SDS_P1;SDS_P2;PMS_P1;PMS_P2;Temp;Humidity;BMP_temperature;BMP_pressure;BME280_temperature;BME280_humidity;BME280_pressure;Samples;Min_cycle;Max_cycle;Signal;HPM_P1;HPM_P2
2022/02/14 00:00:58;;;;;;;4.10;3.28;;;9.30;99.90;;;;;;5028198;28;20101;-44
2022/02/14 00:03:23;;;;;;;9.15;3.40;;;9.40;99.90;;;;;;5028090;28;20120;-42
2022/02/14 00:05:49;;;;;;;8.13;3.90;;;9.40;99.90;;;;;;5027540;28;20042;-43
2022/02/14 00:08:14;;;;;;;7.88;4.35;;;9.40;99.90;;;;;;5027829;28;20044;-43
2022/02/14 00:10:40;;;;;;;6.78;3.45;;;9.40;99.90;;;;;;5028199;28;20799;-43
2022/02/14 00:13:05;;;;;;;6.75;3.17;;;9.40;99.90;;;;;;5028069;28;20065;-43
2022/02/14 00:15:31;;;;;;;5.13;3.00;;;9.40;99.90;;;;;;5027382;28;20109;-43
2022/02/14 00:17:57;;;;;;;6.55;3.40;;;9.40;99.90;;;;;;5027956;28;20033;-42
2022/02/14 00:20:22;;;;;;;5.95;2.53;;;9.40;99.90;;;;;;5027141;28;20112;-41
2022/02/14 00:22:48;;;;;;;4.88;2.90;;;9.50;99.90;;;;;;5028273;28;20104;-40
2022/02/14 00:25:13;;;;;;;4.15;2.88;;;9.50;99.90;;;;;;5027564;28;20115;-43
2022/02/14 00:27:40;;;;;;;5.93;3.15;;;9.60;99.90;;;;;;5027492;28;20029;-43
2022/02/14 00:30:07;;;;;;;3.75;2.80;;;9.60;99.90;;;;;;5027881;28;20064;-43
2022/02/14 00:32:33;;;;;;;5.65;3.28;;;9.70;99.90;;;;;;5027423;28;20649;-42
2022/02/14 00:34:59;;;;;;;5.35;3.00;;;9.70;99.90;;;;;;5027436;28;20029;-43
2022/02/14 00:37:25;;;;;;;5.35;3.20;;;9.80;99.90;;;;;;5027244;28;20033;-42
2022/02/14 00:39:50;;;;;;;4.15;3.08;;;9.80;99.90;;;;;;5008361;28;20033;-43
2022/02/14 00:42:16;;;;;;;6.97;2.92;;;9.80;99.90;;;;;;5020495;28;20740;-42
2022/02/14 00:44:41;;;;;;;4.20;2.63;;;9.90;99.90;;;;;;5027904;28;20028;-43
2022/02/14 00:47:07;;;;;;;5.55;3.13;;;9.90;99.90;;;;;;5027617;28;20100;-43
2022/02/14 00:49:33;;;;;;;9.98;3.30;;;9.90;99.90;;;;;;5026788;28;20091;-43
2022/02/14 00:51:58;;;;;;;5.03;2.75;;;10.00;99.90;;;;;;5028035;28;20421;-43
2022/02/14 00:54:24;;;;;;;6.05;3.00;;;10.00;99.90;;;;;;5026548;28;20496;-42
2022/02/14 00:56:50;;;;;;;4.70;2.90;;;10.10;99.90;;;;;;5026949;28;20029;-43
2022/02/14 00:59:15;;;;;;;3.40;2.45;;;10.10;99.90;;;;;;5027483;28;20056;-43
2022/02/14 01:01:41;;;;;;;5.25;3.25;;;10.10;99.90;;;;;;5027442;28;20102;-43
2022/02/14 01:04:06;;;;;;;5.00;3.40;;;10.10;99.90;;;;;;5027289;28;20029;-43
2022/02/14 01:06:32;;;;;;;4.57;2.65;;;10.10;99.90;;;;;;5026268;28;20049;-43
2022/02/14 01:08:57;;;;;;;6.15;2.58;;;10.10;99.90;;;;;;5027178;28;20029;-42
2022/02/14 01:11:23;;;;;;;6.60;2.47;;;10.10;99.90;;;;;;5026485;28;20485;-43
2022/02/14 01:13:49;;;;;;;6.00;2.80;;;10.10;99.90;;;;;;5027086;28;20564;-43
2022/02/14 01:16:14;;;;;;;3.20;2.55;;;10.10;99.90;;;;;;5026658;28;20057;-43
2022/02/14 01:18:40;;;;;;;6.15;3.05;;;10.10;99.90;;;;;;5026717;28;20112;-42
2022/02/14 01:21:06;;;;;;;9.02;3.10;;;10.10;99.90;;;;;;5027138;28;20030;-42
2022/02/14 01:23:31;;;;;;;5.07;3.35;;;10.10;99.90;;;;;;5026161;28;20570;-43
2022/02/14 01:25:57;;;;;;;3.70;2.70;;;10.10;99.90;;;;;;5027047;28;20030;-42
2022/02/14 01:28:22;;;;;;;5.18;2.60;;;10.10;99.90;;;;;;5026295;28;20057;-41
2022/02/14 01:30:48;;;;;;;6.05;2.92;;;10.20;99.90;;;;;;5026438;28;20022;-43
2022/02/14 01:33:13;;;;;;;5.75;3.03;;;10.20;99.90;;;;;;5025873;28;20045;-42
2022/02/14 01:35:39;;;;;;;3.63;2.22;;;10.20;99.90;;;;;;5027256;28;20033;-42
2022/02/14 01:38:06;;;;;;;5.72;2.80;;;10.20;99.90;;;;;;5026393;28;20028;-43
2022/02/14 01:40:32;;;;;;;5.68;3.13;;;10.20;99.90;;;;;;5025967;28;20025;-42
2022/02/14 01:42:58;;;;;;;5.07;2.67;;;10.30;99.90;;;;;;5026839;28;20029;-42
2022/02/14 01:45:23;;;;;;;4.88;2.70;;;10.30;99.90;;;;;;5025363;28;20080;-43
2022/02/14 01:47:49;;;;;;;6.07;2.70;;;10.30;99.90;;;;;;5026499;28;20064;-42
2022/02/14 01:50:15;;;;;;;6.95;2.47;;;10.30;99.90;;;;;;5025491;28;20120;-43
2022/02/14 01:52:42;;;;;;;4.63;2.70;;;10.30;99.90;;;;;;5025841;28;20542;-42
2022/02/14 01:55:09;;;;;;;4.63;2.60;;;10.30;99.90;;;;;;5026337;28;20599;-43
2022/02/14 01:57:36;;;;;;;6.30;2.60;;;10.30;99.90;;;;;;5026164;28;20033;-41
2022/02/14 02:00:08;;;;;;;6.78;2.80;;;10.30;99.90;;;;;;5025947;28;20029;-42
2022/02/14 02:02:34;;;;;;;3.97;2.47;;;10.20;99.90;;;;;;5026638;28;20026;-42
2022/02/14 02:05:02;;;;;;;6.45;2.85;;;10.30;99.90;;;;;;5025653;28;20743;-43
2022/02/14 02:07:28;;;;;;;5.38;2.63;;;10.20;99.90;;;;;;5024962;28;20029;-43
2022/02/14 02:09:54;;;;;;;4.55;2.15;;;10.30;99.90;;;;;;5025841;28;20028;-43
2022/02/14 02:12:22;;;;;;;4.22;2.10;;;10.30;99.90;;;;;;5025976;28;20033;-43
2022/02/14 02:14:58;;;;;;;9.20;2.80;;;10.30;99.90;;;;;;5025509;28;20029;-43
2022/02/14 02:17:27;;;;;;;5.15;2.63;;;10.30;99.90;;;;;;5025632;28;20029;-42
2022/02/14 02:19:52;;;;;;;5.70;3.22;;;10.40;99.90;;;;;;5025388;28;20021;-44
2022/02/14 02:22:18;;;;;;;4.97;2.60;;;10.40;99.90;;;;;;5025708;28;20384;-43
2022/02/14 02:24:52;;;;;;;6.43;2.45;;;10.40;99.90;;;;;;5026005;28;20068;-43
2022/02/14 02:27:21;;;;;;;6.90;2.30;;;10.40;99.90;;;;;;5025022;28;20029;-43
2022/02/14 02:29:47;;;;;;;3.45;2.20;;;10.40;99.90;;;;;;5025550;28;20026;-43
2022/02/14 02:32:14;;;;;;;4.80;1.92;;;10.40;99.90;;;;;;5025234;28;20738;-44
2022/02/14 02:34:41;;;;;;;4.28;2.10;;;10.40;99.90;;;;;;5025750;28;20457;-43
2022/02/14 02:37:09;;;;;;;4.85;2.00;;;10.40;99.90;;;;;;5025697;28;20108;-44
2022/02/14 02:39:36;;;;;;;3.53;1.90;;;10.40;99.90;;;;;;5025133;28;20528;-43
2022/02/14 02:42:04;;;;;;;3.80;2.00;;;10.40;99.90;;;;;;5025145;28;20017;-44
2022/02/14 02:44:32;;;;;;;4.78;2.15;;;10.40;99.90;;;;;;5025481;28;20017;-42
2022/02/14 02:46:59;;;;;;;4.00;1.98;;;10.40;99.90;;;;;;5025188;28;20109;-42
2022/02/14 02:49:25;;;;;;;5.10;1.95;;;10.30;99.90;;;;;;5025017;28;20029;-43
2022/02/14 02:51:51;;;;;;;5.60;2.28;;;10.30;99.90;;;;;;5025438;28;20465;-43
2022/02/14 02:54:18;;;;;;;5.10;2.10;;;10.30;99.90;;;;;;5024655;28;20037;-43
2022/02/14 02:56:46;;;;;;;4.28;2.30;;;10.30;99.90;;;;;;5024850;28;20030;-43
2022/02/14 02:59:12;;;;;;;5.32;2.53;;;10.30;99.90;;;;;;5024952;28;20030;-47
2022/02/14 03:01:38;;;;;;;4.68;2.20;;;10.30;99.90;;;;;;5025207;28;20033;-43
2022/02/14 03:04:05;;;;;;;2.30;1.80;;;10.30;99.90;;;;;;5025652;28;20084;-43
2022/02/14 03:06:31;;;;;;;4.88;2.20;;;10.40;99.90;;;;;;5024667;28;20091;-42
2022/02/14 03:08:57;;;;;;;6.40;2.40;;;10.40;99.90;;;;;;5025377;28;20030;-44
2022/02/14 03:11:23;;;;;;;3.65;1.90;;;10.40;99.90;;;;;;5024568;28;20037;-43
2022/02/14 03:13:50;;;;;;;3.95;2.20;;;10.30;99.90;;;;;;5025657;28;20041;-42
2022/02/14 03:16:16;;;;;;;5.85;2.65;;;10.30;99.90;;;;;;5024367;28;20348;-43
2022/02/14 03:18:42;;;;;;;4.90;2.28;;;10.30;99.90;;;;;;5027210;28;20025;-44
2022/02/14 03:21:09;;;;;;;6.53;2.65;;;10.30;99.90;;;;;;5028839;28;20132;-43
2022/02/14 03:23:35;;;;;;;6.70;2.10;;;10.30;99.90;;;;;;5024867;28;20017;-42
2022/02/14 03:26:02;;;;;;;4.80;2.00;;;10.30;99.90;;;;;;5029213;28;20783;-44
2022/02/14 03:28:28;;;;;;;3.67;2.33;;;10.30;99.90;;;;;;5028363;28;20044;-43
2022/02/14 03:30:54;;;;;;;4.18;2.25;;;10.30;99.90;;;;;;5028997;28;20032;-43
2022/02/14 03:33:20;;;;;;;3.67;1.90;;;10.40;99.90;;;;;;5028110;28;20041;-42
2022/02/14 03:35:46;;;;;;;3.10;1.88;;;10.40;99.90;;;;;;5029118;28;20437;-43
2022/02/14 03:38:12;;;;;;;7.45;2.28;;;10.40;99.90;;;;;;5028321;28;20068;-43
2022/02/14 03:40:38;;;;;;;4.00;1.90;;;10.40;99.90;;;;;;5028644;28;20030;-43
2022/02/14 03:43:04;;;;;;;4.45;1.88;;;10.40;99.90;;;;;;5028372;28;20056;-42
2022/02/14 03:45:31;;;;;;;5.53;2.17;;;10.50;99.90;;;;;;5028131;28;20029;-43
2022/02/14 03:47:57;;;;;;;5.88;2.30;;;10.50;99.90;;;;;;5028797;28;20025;-43
2022/02/14 03:50:23;;;;;;;5.53;2.10;;;10.50;99.90;;;;;;5028229;28;20060;-43
2022/02/14 03:52:49;;;;;;;6.13;2.25;;;10.50;99.90;;;;;;5027868;28;20033;-44
2022/02/14 03:55:14;;;;;;;4.07;2.05;;;10.50;99.90;;;;;;5028270;28;20048;-43
2022/02/14 03:57:41;;;;;;;4.13;1.95;;;10.50;99.90;;;;;;5028131;28;20029;-42
2022/02/14 04:00:10;;;;;;;3.13;1.42;;;10.60;99.90;;;;;;5028451;28;20025;-44
2022/02/14 04:02:37;;;;;;;2.35;1.60;;;10.60;99.90;;;;;;5027897;28;20025;-42
2022/02/14 04:05:03;;;;;;;4.32;1.77;;;10.60;99.90;;;;;;5028090;28;20065;-44
2022/02/14 04:07:29;;;;;;;3.97;1.88;;;10.70;99.90;;;;;;5027948;28;20112;-42
2022/02/14 04:09:55;;;;;;;3.28;1.80;;;10.70;99.90;;;;;;5027701;28;20656;-43
2022/02/14 04:12:21;;;;;;;4.68;2.03;;;10.70;99.90;;;;;;5027509;28;20029;-43
2022/02/14 04:14:46;;;;;;;3.88;1.80;;;10.80;99.90;;;;;;5028294;28;20037;-42
2022/02/14 04:17:12;;;;;;;4.43;2.05;;;10.80;99.90;;;;;;5028373;28;20068;-43
2022/02/14 04:19:38;;;;;;;4.47;1.98;;;10.90;99.90;;;;;;5027644;28;20048;-42
2022/02/14 04:22:03;;;;;;;5.07;2.30;;;10.90;99.90;;;;;;5028024;28;20665;-43
2022/02/14 04:24:29;;;;;;;5.80;1.67;;;10.90;99.90;;;;;;5027323;28;20029;-42
2022/02/14 04:26:55;;;;;;;3.33;1.67;;;10.90;99.90;;;;;;5027845;28;20053;-42
2022/02/14 04:29:20;;;;;;;4.40;2.00;;;10.90;99.90;;;;;;5026844;28;20028;-42
2022/02/14 04:31:46;;;;;;;5.32;2.05;;;11.00;99.90;;;;;;5027924;28;20027;-43
2022/02/14 04:34:12;;;;;;;3.85;1.80;;;10.90;99.90;;;;;;5027280;28;20029;-42
2022/02/14 04:36:38;;;;;;;3.05;1.55;;;11.00;99.90;;;;;;5028117;28;20052;-41
2022/02/14 04:39:03;;;;;;;6.63;3.05;;;11.00;99.90;;;;;;5027774;28;20068;-42
2022/02/14 04:41:29;;;;;;;3.80;1.90;;;11.00;99.90;;;;;;5026519;28;20536;-41
2022/02/14 04:43:54;;;;;;;9.27;1.95;;;11.00;99.90;;;;;;5028251;28;20068;-41
2022/02/14 04:46:20;;;;;;;2.65;1.58;;;11.00;99.90;;;;;;5026400;28;20782;-42
2022/02/14 04:48:45;;;;;;;4.40;1.63;;;11.00;99.90;;;;;;5027019;28;20037;-42
2022/02/14 04:51:11;;;;;;;3.38;1.83;;;11.00;99.90;;;;;;5027205;28;20032;-45
2022/02/14 04:53:37;;;;;;;4.47;1.95;;;11.00;99.90;;;;;;5027070;28;20049;-43
2022/02/14 04:56:03;;;;;;;3.30;1.63;;;11.00;99.90;;;;;;5027417;28;20024;-41
2022/02/14 04:58:28;;;;;;;4.70;2.30;;;11.00;99.90;;;;;;5006901;28;20033;-42
2022/02/14 05:00:54;;;;;;;4.20;1.80;;;11.00;99.90;;;;;;5021094;28;20025;-43
2022/02/14 05:03:19;;;;;;;3.22;1.50;;;11.00;99.90;;;;;;5026735;28;20370;-42
2022/02/14 05:05:45;;;;;;;3.40;1.80;;;11.10;99.90;;;;;;5026793;28;20229;-43
2022/02/14 05:08:10;;;;;;;4.05;2.03;;;11.10;99.90;;;;;;5026878;28;20033;-44
2022/02/14 05:10:36;;;;;;;4.50;1.67;;;11.10;99.90;;;;;;5025959;28;20080;-43
2022/02/14 05:13:01;;;;;;;6.20;1.75;;;11.10;99.90;;;;;;5027604;28;20037;-43
2022/02/14 05:15:27;;;;;;;4.20;1.58;;;11.10;99.90;;;;;;5026587;28;20029;-44
2022/02/14 05:17:52;;;;;;;4.45;2.00;;;11.10;99.90;;;;;;5027055;28;20021;-43
2022/02/14 05:20:18;;;;;;;4.22;1.70;;;11.20;99.90;;;;;;5026199;28;20061;-43
2022/02/14 05:22:43;;;;;;;6.20;1.95;;;11.20;99.90;;;;;;5026196;28;20021;-42
2022/02/14 05:25:09;;;;;;;3.25;1.60;;;11.20;99.90;;;;;;5026321;28;20551;-44
2022/02/14 05:27:35;;;;;;;2.60;1.58;;;11.20;99.90;;;;;;5026901;28;20025;-43
2022/02/14 05:30:01;;;;;;;3.03;1.77;;;11.20;99.90;;;;;;5026898;28;20021;-44
2022/02/14 05:32:26;;;;;;;3.22;1.60;;;11.20;99.90;;;;;;5026103;28;20037;-43
2022/02/14 05:34:52;;;;;;;2.35;1.58;;;11.20;99.90;;;;;;5026943;28;20124;-44
2022/02/14 05:37:18;;;;;;;2.72;1.55;;;11.20;99.90;;;;;;5025625;28;20036;-43
2022/02/14 05:39:45;;;;;;;5.80;2.03;;;11.20;99.90;;;;;;5026706;28;20036;-43
2022/02/14 05:42:12;;;;;;;4.45;1.50;;;11.30;99.90;;;;;;5025464;28;20080;-44
2022/02/14 05:44:37;;;;;;;2.42;1.52;;;11.30;99.90;;;;;;5026536;28;20025;-44
2022/02/14 05:47:03;;;;;;;3.80;1.63;;;11.30;99.90;;;;;;5026548;28;20025;-42
2022/02/14 05:49:28;;;;;;;7.97;1.70;;;11.30;99.90;;;;;;5025887;28;20529;-43
2022/02/14 05:51:54;;;;;;;2.38;1.58;;;11.30;99.90;;;;;;5026183;28;20492;-42
2022/02/14 05:54:19;;;;;;;5.00;1.83;;;11.30;99.90;;;;;;5026079;28;20199;-43
2022/02/14 05:56:45;;;;;;;3.85;1.77;;;11.30;99.90;;;;;;5026290;28;20021;-42
2022/02/14 05:59:11;;;;;;;2.05;1.35;;;11.30;99.90;;;;;;5025551;28;20056;-43
2022/02/14 06:01:36;;;;;;;3.55;1.58;;;11.30;99.90;;;;;;5025894;28;20025;-43
2022/02/14 06:04:02;;;;;;;3.53;1.50;;;11.30;99.90;;;;;;5026315;28;20030;-42
2022/02/14 06:06:27;;;;;;;4.75;1.70;;;11.30;99.90;;;;;;5025265;28;20046;-43
2022/02/14 06:08:53;;;;;;;3.03;1.40;;;11.30;99.90;;;;;;5026161;28;20037;-43
2022/02/14 06:11:18;;;;;;;2.35;1.45;;;11.30;99.90;;;;;;5025949;28;20031;-42
2022/02/14 06:13:44;;;;;;;3.60;1.40;;;11.30;99.90;;;;;;5025114;28;20767;-43
2022/02/14 06:16:10;;;;;;;3.35;1.58;;;11.30;99.90;;;;;;5025881;28;20548;-43
2022/02/14 06:18:35;;;;;;;4.85;1.75;;;11.30;99.90;;;;;;5025731;28;20489;-42
2022/02/14 06:21:01;;;;;;;2.30;1.40;;;11.30;99.90;;;;;;5025440;28;20018;-45
2022/02/14 06:23:27;;;;;;;4.68;1.45;;;11.30;99.90;;;;;;5025224;28;20812;-42
2022/02/14 06:25:52;;;;;;;2.40;1.35;;;11.30;99.90;;;;;;5025743;28;20458;-44
2022/02/14 06:28:18;;;;;;;2.92;1.60;;;11.30;99.90;;;;;;5024644;28;20045;-43
2022/02/14 06:30:46;;;;;;;4.22;1.35;;;11.30;99.90;;;;;;5026134;28;20040;-43
2022/02/14 06:33:12;;;;;;;3.10;1.38;;;11.30;99.90;;;;;;5024611;28;20030;-43
2022/02/14 06:35:38;;;;;;;4.32;1.30;;;11.20;99.90;;;;;;5025302;28;20485;-43
2022/02/14 06:38:03;;;;;;;3.88;1.45;;;11.20;99.90;;;;;;5025319;28;20041;-43
2022/02/14 06:40:29;;;;;;;2.05;1.38;;;11.20;99.90;;;;;;5020459;28;20040;-43
2022/02/14 06:42:54;;;;;;;3.40;1.67;;;11.30;99.90;;;;;;5028591;28;20060;-43
2022/02/14 06:45:20;;;;;;;3.55;1.40;;;11.30;99.90;;;;;;5021631;28;20025;-42
2022/02/14 06:47:46;;;;;;;3.67;1.60;;;11.30;99.90;;;;;;5024579;28;20040;-41
2022/02/14 06:50:12;;;;;;;1.80;1.40;;;11.30;99.90;;;;;;5024175;28;20060;-44
2022/02/14 06:52:38;;;;;;;2.72;1.25;;;11.30;99.90;;;;;;5024444;28;20462;-42
2022/02/14 06:55:06;;;;;;;2.55;1.20;;;11.30;99.90;;;;;;5024040;28;20033;-43
2022/02/14 06:57:31;;;;;;;4.13;1.40;;;11.30;99.90;;;;;;5024620;28;20096;-42
2022/02/14 07:00:00;;;;;;;2.03;1.33;;;11.30;99.90;;;;;;5024108;28;20157;-43
2022/02/14 07:02:26;;;;;;;2.72;1.42;;;11.30;99.90;;;;;;5023446;28;20042;-43
2022/02/14 07:04:52;;;;;;;2.15;1.42;;;11.40;99.90;;;;;;5023844;28;20049;-43
2022/02/14 07:07:19;;;;;;;2.35;1.52;;;11.40;99.90;;;;;;5024000;28;20034;-42
2022/02/14 07:09:48;;;;;;;5.00;1.70;;;11.30;99.90;;;;;;5023568;28;20029;-43
2022/02/14 07:12:13;;;;;;;4.28;1.50;;;11.40;99.90;;;;;;5024598;28;20045;-41
2022/02/14 07:14:39;;;;;;;4.47;1.40;;;11.40;99.90;;;;;;5023509;28;20041;-42
2022/02/14 07:17:04;;;;;;;5.85;2.00;;;11.40;99.90;;;;;;5023961;28;20380;-43
2022/02/14 07:19:30;;;;;;;3.35;1.58;;;11.40;99.90;;;;;;5024371;28;20500;-42
2022/02/14 07:21:56;;;;;;;1.55;1.17;;;11.40;99.90;;;;;;5024121;28;20017;-44
2022/02/14 07:24:21;;;;;;;3.05;1.67;;;11.40;99.90;;;;;;5023070;28;20108;-43
2022/02/14 07:26:47;;;;;;;2.25;1.48;;;11.40;99.90;;;;;;5024580;28;20022;-43
2022/02/14 07:29:12;;;;;;;3.13;1.60;;;11.40;99.90;;;;;;5023970;28;20037;-42
2022/02/14 07:31:38;;;;;;;1.95;1.40;;;11.40;99.90;;;;;;5024362;28;20021;-42
2022/02/14 07:34:03;;;;;;;2.65;1.40;;;11.50;99.90;;;;;;5024770;28;20037;-43
2022/02/14 07:36:29;;;;;;;3.72;1.55;;;11.50;99.90;;;;;;5024306;28;20075;-44
2022/02/14 07:38:55;;;;;;;4.78;1.33;;;11.50;99.90;;;;;;5025406;28;20488;-42
2022/02/14 07:41:21;;;;;;;3.40;1.70;;;11.50;99.90;;;;;;5024602;28;20346;-44
2022/02/14 07:43:46;;;;;;;2.60;1.65;;;11.50;99.90;;;;;;5024253;28;20091;-42
2022/02/14 07:46:12;;;;;;;4.13;1.92;;;11.50;99.90;;;;;;5024842;28;20025;-44
2022/02/14 07:48:39;;;;;;;3.67;2.03;;;11.60;99.90;;;;;;5024863;28;20488;-42
2022/02/14 07:51:04;;;;;;;5.88;2.08;;;11.50;99.90;;;;;;5023756;28;20472;-43
2022/02/14 07:53:30;;;;;;;2.55;1.88;;;11.60;99.90;;;;;;5024785;28;20084;-44
2022/02/14 07:55:55;;;;;;;6.03;1.80;;;11.60;99.90;;;;;;5024414;28;20490;-42
2022/02/14 07:58:21;;;;;;;3.33;1.70;;;11.60;99.90;;;;;;5023891;28;20083;-43
2022/02/14 08:00:46;;;;;;;1.90;1.40;;;11.60;99.90;;;;;;5025249;28;20056;-43
2022/02/14 08:03:12;;;;;;;2.50;1.55;;;11.60;99.90;;;;;;5024373;28;20116;-43
2022/02/14 08:05:38;;;;;;;2.78;1.77;;;11.60;99.90;;;;;;5026531;28;20119;-42
2022/02/14 08:08:03;;;;;;;3.08;2.53;;;11.60;99.90;;;;;;5025370;28;20279;-45
2022/02/14 08:10:29;;;;;;;3.17;1.60;;;11.60;99.90;;;;;;5027609;28;20052;-42
2022/02/14 08:12:54;;;;;;;4.45;1.67;;;11.60;99.90;;;;;;5027469;28;20067;-43
2022/02/14 08:15:20;;;;;;;1.70;1.00;;;11.60;99.90;;;;;;5027240;28;20026;-43
2022/02/14 08:17:46;;;;;;;1.27;0.80;;;11.50;99.90;;;;;;5028197;28;20072;-43
2022/02/14 08:20:11;;;;;;;1.20;0.50;;;11.20;99.90;;;;;;5027311;28;20109;-43
2022/02/14 08:22:37;;;;;;;1.10;0.63;;;10.90;99.90;;;;;;5028301;28;20025;-44
2022/02/14 08:25:03;;;;;;;1.27;0.75;;;10.60;99.90;;;;;;5028115;28;20095;-43
2022/02/14 08:27:28;;;;;;;1.00;0.70;;;10.30;99.90;;;;;;5027321;28;20041;-43
2022/02/14 08:29:56;;;;;;;1.77;0.80;;;10.10;99.90;;;;;;5028672;28;20064;-43
2022/02/14 08:32:21;;;;;;;0.82;0.50;;;10.00;99.90;;;;;;5027188;28;20507;-43
2022/02/14 08:34:47;;;;;;;0.90;0.70;;;9.90;99.90;;;;;;5027336;28;20045;-43
2022/02/14 08:37:12;;;;;;;1.25;0.70;;;9.80;99.90;;;;;;5027698;28;20109;-43
2022/02/14 08:39:39;;;;;;;1.58;0.82;;;9.80;99.90;;;;;;5027238;28;20025;-42
2022/02/14 08:42:05;;;;;;;1.48;0.73;;;9.70;99.90;;;;;;5027456;28;20041;-42
2022/02/14 08:44:30;;;;;;;0.98;0.82;;;9.70;99.90;;;;;;5027203;28;20029;-43
2022/02/14 08:46:56;;;;;;;1.17;0.70;;;9.60;99.90;;;;;;5027080;28;20072;-42
2022/02/14 08:49:24;;;;;;;1.25;0.70;;;9.60;99.90;;;;;;5026968;28;20108;-44
2022/02/14 08:51:51;;;;;;;0.82;0.70;;;9.60;99.90;;;;;;5027948;28;20018;-42
2022/02/14 08:54:17;;;;;;;1.35;0.80;;;9.70;99.90;;;;;;5025926;28;20095;-44
2022/02/14 08:56:42;;;;;;;1.00;0.60;;;9.70;99.90;;;;;;5027591;28;20037;-44
2022/02/14 08:59:08;;;;;;;0.52;0.40;;;9.80;99.90;;;;;;5027070;28;20037;-42
2022/02/14 09:01:33;;;;;;;0.52;0.40;;;9.80;99.90;;;;;;5027088;28;20032;-42
2022/02/14 09:03:59;;;;;;;0.50;0.50;;;9.80;99.90;;;;;;5027250;28;20033;-42
2022/02/14 09:06:27;;;;;;;0.80;0.47;;;9.90;99.90;;;;;;5026207;28;20076;-43
2022/02/14 09:08:53;;;;;;;0.82;0.60;;;9.90;99.90;;;;;;5026838;28;20115;-43
2022/02/14 09:11:19;;;;;;;0.50;0.50;;;10.00;99.90;;;;;;5027257;28;20029;-42
2022/02/14 09:13:44;;;;;;;0.70;0.65;;;10.00;99.90;;;;;;5027503;28;20037;-42
2022/02/14 09:16:10;;;;;;;0.90;0.60;;;10.10;99.90;;;;;;5026360;28;20030;-41
2022/02/14 09:18:37;;;;;;;1.65;0.50;;;10.10;99.90;;;;;;5026785;28;20037;-43
2022/02/14 09:21:03;;;;;;;0.45;0.40;;;10.10;99.90;;;;;;5027119;28;20116;-43
2022/02/14 09:23:29;;;;;;;1.17;0.60;;;10.00;99.90;;;;;;5025852;28;20037;-43
2022/02/14 09:25:56;;;;;;;1.30;0.75;;;10.00;99.90;;;;;;5026336;28;20033;-42
2022/02/14 09:28:22;;;;;;;0.40;0.40;;;9.90;99.90;;;;;;5025291;28;20060;-42
2022/02/14 09:30:47;;;;;;;1.27;0.40;;;9.80;99.90;;;;;;5024622;28;20039;-43
2022/02/14 09:33:13;;;;;;;0.68;0.40;;;9.80;99.90;;;;;;5026802;28;20489;-42
2022/02/14 09:35:38;;;;;;;0.47;0.38;;;9.80;99.90;;;;;;5026448;28;20032;-43
2022/02/14 09:38:06;;;;;;;0.52;0.40;;;9.70;99.90;;;;;;5026424;28;20033;-43
2022/02/14 09:40:32;;;;;;;0.60;0.40;;;9.70;99.90;;;;;;5026144;28;20025;-42
2022/02/14 09:42:59;;;;;;;0.60;0.60;;;9.60;99.90;;;;;;5006388;28;20116;-42
2022/02/14 09:45:26;;;;;;;1.42;0.60;;;9.60;99.90;;;;;;5020169;28;20491;-42
2022/02/14 09:47:58;;;;;;;0.88;0.75;;;9.60;99.90;;;;;;5026574;28;20037;-41
2022/02/14 09:50:24;;;;;;;0.82;0.82;;;9.70;99.90;;;;;;5025300;28;20032;-43
2022/02/14 09:52:50;;;;;;;1.40;1.30;;;9.70;99.90;;;;;;5026234;28;20030;-42
2022/02/14 09:55:16;;;;;;;1.40;1.30;;;9.80;99.90;;;;;;5025674;28;20069;-43
2022/02/14 09:57:41;;;;;;;1.77;1.55;;;9.80;99.90;;;;;;5026452;28;20057;-43
2022/02/14 10:00:08;;;;;;;3.03;2.50;;;9.90;99.90;;;;;;5026057;28;20100;-43
2022/02/14 10:02:35;;;;;;;2.88;2.60;;;10.00;99.90;;;;;;5025584;28;20095;-42
2022/02/14 10:05:13;;;;;;;3.03;2.72;;;10.00;99.90;;;;;;5025126;28;20501;-42
2022/02/14 10:07:48;;;;;;;3.20;2.90;;;10.10;99.90;;;;;;5016965;28;20072;-42
2022/02/14 10:10:24;;;;;;;3.83;3.28;;;10.30;99.90;;;;;;5025654;28;20033;-43
2022/02/14 10:12:55;;;;;;;4.60;3.03;;;10.40;99.90;;;;;;5025814;28;20029;-43
2022/02/14 10:15:23;;;;;;;3.35;3.10;;;10.50;99.90;;;;;;5025766;28;20457;-43
2022/02/14 10:17:53;;;;;;;3.60;3.20;;;10.50;99.90;;;;;;5025261;28;20029;-43
2022/02/14 10:20:22;;;;;;;3.50;3.20;;;10.60;99.90;;;;;;5023185;28;20462;-42
2022/02/14 10:22:51;;;;;;;4.25;2.90;;;10.60;99.90;;;;;;5023815;28;20110;-43
2022/02/14 10:25:28;;;;;;;4.10;3.78;;;10.70;99.90;;;;;;5025121;28;20021;-43
2022/02/14 10:27:54;;;;;;;4.05;3.40;;;10.60;99.90;;;;;;5023265;28;20444;-43
2022/02/14 10:30:20;;;;;;;3.80;3.50;;;10.60;99.90;;;;;;5025597;28;20026;-43
2022/02/14 10:32:53;;;;;;;3.88;3.50;;;10.60;99.90;;;;;;5025326;28;20055;-44
2022/02/14 10:35:19;;;;;;;3.97;3.67;;;10.60;99.90;;;;;;5025114;28;20029;-44
2022/02/14 10:37:46;;;;;;;3.97;3.58;;;10.60;99.90;;;;;;5025446;28;20044;-43
2022/02/14 10:40:26;;;;;;;3.83;3.53;;;10.60;99.90;;;;;;5025234;28;20697;-42
2022/02/14 10:42:52;;;;;;;3.80;3.38;;;10.70;99.90;;;;;;5025753;28;20033;-44
2022/02/14 10:45:21;;;;;;;3.90;3.50;;;10.70;99.90;;;;;;5025167;28;20112;-43
2022/02/14 10:47:47;;;;;;;4.20;3.70;;;10.70;99.90;;;;;;5024889;28;20112;-42
2022/02/14 10:50:17;;;;;;;5.10;3.35;;;10.80;99.90;;;;;;5025851;28;20108;-43
2022/02/14 10:52:49;;;;;;;5.35;4.07;;;10.80;99.90;;;;;;5025125;28;20037;-44
2022/02/14 10:55:15;;;;;;;3.65;3.30;;;10.90;99.90;;;;;;5024636;28;20057;-44
2022/02/14 10:57:43;;;;;;;3.50;3.20;;;11.00;99.90;;;;;;5025528;28;20030;-43
2022/02/14 11:00:10;;;;;;;3.33;2.97;;;11.10;99.90;;;;;;5025220;28;20111;-43
2022/02/14 11:02:39;;;;;;;4.47;3.13;;;11.20;99.90;;;;;;5024837;28;20025;-43
2022/02/14 11:05:05;;;;;;;3.70;3.15;;;11.30;99.90;;;;;;5025453;28;20049;-43
2022/02/14 11:07:32;;;;;;;3.90;2.88;;;11.30;99.90;;;;;;5023822;28;20035;-44
2022/02/14 11:10:01;;;;;;;5.80;3.15;;;11.20;99.90;;;;;;5025944;28;20025;-43
2022/02/14 11:12:29;;;;;;;4.45;2.90;;;11.20;99.90;;;;;;5024640;28;20144;-42
2022/02/14 11:14:56;;;;;;;3.70;2.75;;;11.10;99.90;;;;;;5025067;28;20038;-43
2022/02/14 11:17:25;;;;;;;3.22;2.58;;;11.10;99.90;;;;;;5024802;28;20028;-43
2022/02/14 11:19:54;;;;;;;5.38;3.13;;;11.00;99.90;;;;;;5025357;28;20075;-43
2022/02/14 11:22:21;;;;;;;5.10;2.65;;;11.00;99.90;;;;;;5024280;28;20389;-42
2022/02/14 11:24:53;;;;;;;4.57;3.22;;;10.90;99.90;;;;;;5025746;28;20017;-42
2022/02/14 11:27:22;;;;;;;3.00;2.77;;;10.90;99.90;;;;;;5025012;28;20033;-43
2022/02/14 11:29:51;;;;;;;4.50;2.80;;;10.80;99.90;;;;;;5020877;28;20732;-44
2022/02/14 11:32:21;;;;;;;4.20;3.00;;;10.80;99.90;;;;;;5025258;28;20409;-44
2022/02/14 11:35:06;;;;;;;4.10;3.08;;;10.80;99.90;;;;;;5025419;28;20085;-41
2022/02/14 11:37:54;;;;;;;2.63;2.42;;;10.90;99.90;;;;;;5024299;28;20416;-42
2022/02/14 11:40:27;;;;;;;5.13;3.67;;;11.00;99.90;;;;;;5026981;28;20041;-43
2022/02/14 11:43:15;;;;;;;4.78;2.83;;;11.10;99.90;;;;;;5028213;28;20063;-43
2022/02/14 11:45:42;;;;;;;3.90;2.70;;;11.20;99.90;;;;;;5028336;28;20029;-43
2022/02/14 11:48:27;;;;;;;4.07;2.58;;;11.20;99.90;;;;;;5028474;28;20271;-42
2022/02/14 11:51:10;;;;;;;3.10;2.10;;;11.20;99.90;;;;;;5027790;28;20033;-44
2022/02/14 11:53:45;;;;;;;4.68;2.60;;;11.30;99.90;;;;;;5028125;28;20107;-43
2022/02/14 11:56:23;;;;;;;3.00;2.03;;;11.40;99.90;;;;;;5017527;28;20021;-44
2022/02/14 11:59:13;;;;;;;3.38;1.80;;;11.40;99.90;;;;;;5028380;28;20029;-42
2022/02/14 12:01:44;;;;;;;2.13;1.67;;;11.40;99.90;;;;;;5020412;28;20476;-42
2022/02/14 12:04:32;;;;;;;2.72;1.92;;;11.50;99.90;;;;;;5027698;28;20088;-42
2022/02/14 12:07:19;;;;;;;4.18;2.38;;;11.50;99.90;;;;;;5028258;28;20045;-43
2022/02/14 12:09:57;;;;;;;3.72;1.77;;;11.50;99.90;;;;;;5030208;28;20036;-44
2022/02/14 12:13:04;;;;;;;3.33;1.58;;;11.50;99.90;;;;;;5028173;28;20192;-44
2022/02/14 12:21:08;;;;;;;;;;;11.60;99.90;;;;;;5027462;28;20044;-43
2022/02/14 12:23:41;;;;;;;2.22;1.10;;;11.60;99.90;;;;;;5026832;28;19909;-42
2022/02/14 12:26:12;;;;;;;3.60;1.13;;;11.60;99.90;;;;;;5026264;28;20104;-43
2022/02/14 12:28:40;;;;;;;1.55;1.00;;;11.70;99.90;;;;;;5027214;28;20033;-43
2022/02/14 12:31:06;;;;;;;4.93;1.20;;;11.80;99.90;;;;;;5026091;28;20025;-44
2022/02/14 12:33:32;;;;;;;1.73;1.08;;;11.80;99.90;;;;;;5026335;28;20498;-41
2022/02/14 12:36:00;;;;;;;2.75;1.10;;;11.90;99.90;;;;;;5028039;28;20021;-44
2022/02/14 12:38:32;;;;;;;2.80;1.10;;;12.00;99.90;;;;;;5026804;28;20733;-43
2022/02/14 12:41:04;;;;;;;5.57;1.33;;;12.10;99.90;;;;;;5027299;28;20101;-43
2022/02/14 12:43:40;;;;;;;2.50;1.00;;;12.00;99.90;;;;;;5027141;28;20289;-43
2022/02/14 12:46:16;;;;;;;4.00;1.55;;;12.00;99.90;;;;;;5027491;28;20359;-44
2022/02/14 12:48:44;;;;;;;2.85;1.00;;;12.00;99.90;;;;;;5026701;28;20021;-43
2022/02/14 12:51:13;;;;;;;3.65;1.10;;;12.00;99.90;;;;;;5026659;28;20057;-47
2022/02/14 12:53:53;;;;;;;2.90;1.00;;;12.00;99.90;;;;;;5027642;28;20058;-43